METAR Data
IDs: Format: Raw Decoded Include TAF

Data at: 0227 UTC 16 Jan 2019

KLUD 160215Z AUTO 14009KT 5SM HZ OVC028 09/05 A3021 RMK AO2 T00850046
KLUD 160155Z AUTO 00000KT 7SM OVC028 09/05 A3022 RMK AO2 T00860047
KLUD 160135Z AUTO 13007KT 7SM OVC028 09/05 A3021 RMK AO2 T00870045
KLUD 160115Z AUTO 13007KT 10SM OVC028 09/04 A3021 RMK AO2 T00880044
KLUD 160055Z AUTO 00000KT 7SM OVC028 09/04 A3021 RMK AO2 T00900043
KLUD 160035Z AUTO 00000KT 10SM OVC028 09/04 A3021 RMK AO2 T00900043
KLUD 160015Z AUTO 00000KT 10SM OVC030 09/04 A3020 RMK AO2 T00910043
KLUD 152355Z AUTO 00000KT 10SM OVC030 09/04 A3019 RMK AO2 T00930043 10103 20076
KLUD 152335Z AUTO 14003KT 10SM OVC030 10/05 A3019 RMK AO2 T00980045
KLUD 152315Z AUTO 00000KT 10SM OVC030 10/04 A3019 RMK AO2 T01000042
KLUD 152255Z AUTO 15004KT 10SM OVC030 10/04 A3019 RMK AO2 T01020042
KLUD 152235Z AUTO 00000KT 10SM OVC032 10/04 A3019 RMK AO2 T01020040
KLUD 152215Z AUTO 14007KT 10SM OVC032 10/04 A3019 RMK AO2 T01020040
KLUD 152155Z AUTO 00000KT 10SM OVC032 10/04 A3020 RMK AO2 T01020041
KLUD 152135Z AUTO 00000KT 7SM OVC032 10/04 A3021 RMK AO2 T01000037
KLUD 152115Z AUTO 00000KT 10SM OVC034 10/04 A3021 RMK AO2 T01000037
KLUD 152055Z AUTO 13004KT 10SM OVC034 10/04 A3021 RMK AO2 T00990037
KLUD 152035Z AUTO 00000KT 10SM OVC034 10/04 A3021 RMK AO2 T00980038
KLUD 152015Z AUTO 00000KT 10SM OVC034 10/04 A3022 RMK AO2 T00960036
KLUD 151955Z AUTO 00000KT 10SM OVC036 10/04 A3023 RMK AO2 T00950036
KLUD 151935Z AUTO 13006KT 10SM OVC038 09/04 A3023 RMK AO2 T00920036
KLUD 151915Z AUTO 00000KT 7SM OVC038 09/04 A3025 RMK AO2 T00890035
KLUD 151855Z AUTO 00000KT 7SM OVC040 09/03 A3026 RMK AO2 T00850034
KLUD 151835Z AUTO 00000KT 7SM OVC040 08/03 A3027 RMK AO2 T00820033
KLUD 151815Z AUTO 00000KT 10SM OVC040 08/03 A3030 RMK AO2 T00770031
KLUD 151755Z AUTO 00000KT 10SM OVC040 08/03 A3031 RMK AO2 T00750030 10076 20045
KLUD 151735Z AUTO 17003KT 7SM OVC042 08/03 A3033 RMK AO2 T00750028
KLUD 151715Z AUTO 16003KT 7SM OVC042 07/03 A3033 RMK AO2 T00740029
KLUD 151655Z AUTO 00000KT 7SM OVC042 07/03 A3033 RMK AO2 T00700026
KLUD 151635Z AUTO 00000KT 7SM OVC042 07/03 A3033 RMK AO2 T00670025
KLUD 151615Z AUTO 00000KT 7SM OVC042 07/02 A3033 RMK AO2 T00650024
KLUD 151555Z AUTO 18006KT 7SM OVC042 06/02 A3033 RMK AO2 T00630022
KLUD 151535Z AUTO 00000KT 10SM OVC042 06/03 A3032 RMK AO2 T00610025
KLUD 151515Z AUTO 00000KT 10SM OVC042 06/02 A3031 RMK AO2 T00560022
KLUD 151455Z AUTO 00000KT 10SM OVC042 05/02 A3030 RMK AO2 T00530022
KLUD 151435Z AUTO 00000KT 7SM OVC042 05/02 A3030 RMK AO2 T00500018
KLUD 151415Z AUTO 00000KT 10SM OVC042 05/02 A3030 RMK AO2 T00500017
KLUD 151355Z AUTO 00000KT 7SM OVC042 05/02 A3031 RMK AO2 T00480016
KLUD 151335Z AUTO 00000KT 7SM OVC042 05/02 A3031 RMK AO2 T00480016
KLUD 151315Z AUTO 00000KT 7SM OVC042 05/02 A3030 RMK AO2 T00480015
KLUD 151255Z AUTO 00000KT 7SM OVC042 05/01 A3030 RMK AO2 T00480013
KLUD 151235Z AUTO 00000KT 7SM OVC042 05/01 A3028 RMK AO2 T00470013
KLUD 151215Z AUTO 00000KT 7SM OVC042 05/01 A3029 RMK AO2 T00470014
KLUD 151155Z AUTO 00000KT 7SM OVC042 05/01 A3028 RMK AO2 T00450014 10050 20005
KLUD 151135Z AUTO 15005KT 7SM OVC042 05/01 A3028 RMK AO2 T00450013
KLUD 151115Z AUTO 00000KT 7SM OVC042 05/01 A3028 RMK AO2 T00450013
KLUD 151055Z AUTO 00000KT 7SM OVC042 05/01 A3029 RMK AO2 T00460012
KLUD 151035Z AUTO 15003KT 7SM OVC042 05/01 A3030 RMK AO2 T00460012
KLUD 151015Z AUTO 00000KT 7SM OVC042 05/01 A3031 RMK AO2 T00480009
KLUD 150955Z AUTO 00000KT 7SM OVC042 05/01 A3032 RMK AO2 T00480010
KLUD 150935Z AUTO 17003KT 7SM OVC042 05/01 A3032 RMK AO2 T00470010
KLUD 150915Z AUTO 17004KT 7SM OVC042 05/01 A3033 RMK AO2 T00460009
KLUD 150855Z AUTO 00000KT 7SM OVC042 05/01 A3033 RMK AO2 T00450008
KLUD 150835Z AUTO 00000KT 7SM OVC044 04/01 A3033 RMK AO2 T00350010
KLUD 150815Z AUTO 00000KT 7SM OVC044 03/01 A3032 RMK AO2 T00300007
KLUD 150755Z AUTO 00000KT 7SM OVC044 03/00 A3032 RMK AO2 T00260003
KLUD 150735Z AUTO 00000KT 7SM OVC044 03/00 A3032 RMK AO2 T00250002
KLUD 150715Z AUTO 00000KT 5SM BR OVC044 02/00 A3031 RMK AO2 T00210002
KLUD 150655Z AUTO 00000KT 5SM BR OVC044 01/00 A3032 RMK AO2 T00101001
KLUD 150635Z AUTO 00000KT 5SM BR SCT046 01/00 A3033 RMK AO2 T00091005
KLUD 150615Z AUTO 00000KT 7SM CLR 01/00 A3033 RMK AO2 T00111004
KLUD 150555Z AUTO 00000KT 7SM SCT046 02/00 A3035 RMK AO2 T00200000 10054 20011 400670002
KLUD 150535Z AUTO 00000KT 5SM BR SCT046 02/00 A3035 RMK AO2 T00150000
KLUD 150515Z AUTO 00000KT 7SM CLR 02/00 A3036 RMK AO2 T00200000
KLUD 150455Z AUTO 00000KT 7SM CLR 02/00 A3035 RMK AO2 T00171001
KLUD 150435Z AUTO 00000KT 5SM BR CLR 02/00 A3035 RMK AO2 T00151002
KLUD 150415Z AUTO 00000KT 7SM CLR 02/00 A3035 RMK AO2 T00201001
KLUD 150355Z AUTO 14005KT 7SM CLR 03/00 A3035 RMK AO2 T00250000
KLUD 150335Z AUTO 00000KT 10SM CLR 03/00 A3036 RMK AO2 T00250000
KLUD 150315Z AUTO 00000KT 7SM CLR 03/00 A3035 RMK AO2 T00260000
KLUD 150255Z AUTO 00000KT 7SM CLR 03/00 A3035 RMK AO2 T00300000
KLUD 150235Z AUTO 00000KT 7SM CLR 03/00 A3035 RMK AO2 T00270000
KLUD 150215Z AUTO 00000KT 7SM CLR 03/00 A3036 RMK AO2 T00310000
KLUD 150155Z AUTO 00000KT 7SM CLR 04/00 A3036 RMK AO2 T00381001
KLUD 150135Z AUTO 00000KT 7SM CLR 04/00 A3036 RMK AO2 T00401002
KLUD 150115Z AUTO 00000KT 10SM CLR 04/00 A3035 RMK AO2 T00410000
KLUD 150055Z AUTO 00000KT 10SM CLR 04/00 A3035 RMK AO2 T00441001
KLUD 150035Z AUTO 00000KT 7SM CLR 05/00 A3035 RMK AO2 T00450000
KLUD 150015Z AUTO 00000KT 10SM CLR 05/00 A3035 RMK AO2 T00501002
KLUD 142355Z AUTO 00000KT 10SM CLR 05/00 A3035 RMK AO2 T00541001 10067 20022
KLUD 142335Z AUTO 00000KT 10SM CLR 06/00 A3036 RMK AO2 T00551005
KLUD 142315Z AUTO 00000KT 7SM CLR 06/00 A3036 RMK AO2 T00601004
KLUD 142255Z AUTO 00000KT 10SM CLR 06/00 A3037 RMK AO2 T00621004
KLUD 142235Z AUTO 00000KT 7SM CLR 06/00 A3036 RMK AO2 T00641001
KLUD 142215Z AUTO 00000KT 7SM CLR 06/00 A3036 RMK AO2 T00601004
KLUD 142155Z AUTO 00000KT 7SM CLR 06/00 A3035 RMK AO2 T00581004
KLUD 142135Z AUTO 00000KT 10SM CLR 06/00 A3036 RMK AO2 T00591002
KLUD 142115Z AUTO 00000KT 7SM CLR 05/M01 A3037 RMK AO2 T00501006
KLUD 142055Z AUTO 00000KT 7SM CLR 05/00 A3037 RMK AO2 T00501004
KLUD 142035Z AUTO 00000KT 7SM SCT019 05/00 A3038 RMK AO2 T00511002
KLUD 142015Z AUTO 00000KT 7SM CLR 04/M01 A3038 RMK AO2 T00401006
KLUD 141955Z AUTO 00000KT 10SM BKN016 04/00 A3039 RMK AO2 T00401004
KLUD 141935Z AUTO 00000KT 10SM OVC016 04/00 A3040 RMK AO2 T00431004
KLUD 141915Z AUTO 00000KT 10SM OVC016 03/M01 A3042 RMK AO2 T00341007
KLUD 141855Z AUTO 00000KT 10SM OVC014 03/M01 A3042 RMK AO2 T00331006
KLUD 141835Z AUTO 00000KT 10SM OVC014 03/M01 A3043 RMK AO2 T00321007
KLUD 141815Z AUTO 00000KT 10SM OVC014 03/M01 A3045 RMK AO2 T00261010
KLUD 141755Z AUTO 00000KT 10SM OVC012 02/M01 A3047 RMK AO2 T00221010 10022 20002
KLUD 141735Z AUTO 00000KT 10SM OVC012 02/M01 A3048 RMK AO2 T00191011
KLUD 141715Z AUTO 00000KT 10SM OVC012 02/M01 A3049 RMK AO2 T00171013
KLUD 141655Z AUTO 00000KT 10SM OVC010 01/M01 A3049 RMK AO2 T00141015
KLUD 141635Z AUTO 00000KT 10SM OVC010 01/M02 A3049 RMK AO2 T00131016
KLUD 141615Z AUTO 00000KT 10SM OVC010 01/M01 A3049 RMK AO2 T00111015
KLUD 141555Z AUTO 00000KT 10SM OVC010 01/M02 A3049 RMK AO2 T00081016
KLUD 141535Z AUTO 00000KT 7SM OVC010 01/M01 A3048 RMK AO2 T00071015
KLUD 141515Z AUTO 00000KT 7SM OVC010 01/M02 A3048 RMK AO2 T00051016
KLUD 141455Z AUTO 00000KT 7SM OVC010 01/M01 A3047 RMK AO2 T00051015
KLUD 141435Z AUTO 00000KT 7SM OVC010 01/M02 A3047 RMK AO2 T00051016